Terminal Aerodrome Forecast
Issued by NWS Wilmington, OH

Home | Current Version | Previous Version | Text Only | Print | Product List | Glossary On
Versions: 1 2 3 4 5 6 7 8 9 10 11 12 13 14 15 16 17 18 19 20 21 22 23 24
000
FTUS41 KILN 280500
TAFCMH
TAF
KCMH 280530Z 2806/2906 28008KT P6SM FEW020
     FM281000 30010KT P6SM BKN018
     FM281500 32012KT P6SM -SHRA BKN025
     FM282300 32010KT P6SM BKN035
     FM290300 34005KT P6SM SCT035=

USA.gov is the U.S. government's official web portal to all federal, state and local government web resources and services.